Time;durP1;ratioP1;P1;durP2;ratioP2;P2;SDS_P1;SDS_P2;PMS_P1;PMS_P2;Temp;Humidity;BMP_temperature;BMP_pressure;BME280_temperature;BME280_humidity;BME280_pressure;Samples;Min_cycle;Max_cycle;Signal;HPM_P1;HPM_P2
2023/09/08 00:01:11;;;;;;;27.02;14.85;;;;;;;;;;5033453;28;20536;-73
2023/09/08 00:03:36;;;;;;;30.38;15.15;;;;;;;;;;5033190;28;20032;-73
2023/09/08 00:06:01;;;;;;;30.40;17.27;;;;;;;;;;5033396;28;20037;-73
2023/09/08 00:08:27;;;;;;;28.80;14.57;;;;;;;;;;5032767;28;20495;-73
2023/09/08 00:10:52;;;;;;;35.70;17.38;;;;;;;;;;5033158;28;20029;-73
2023/09/08 00:13:17;;;;;;;29.50;14.30;;;;;;;;;;5033621;28;20022;-73
2023/09/08 00:15:43;;;;;;;31.08;15.15;;;;;;;;;;5031991;28;20534;-73
2023/09/08 00:18:08;;;;;;;27.67;14.43;;;;;;;;;;5033100;28;20025;-73
2023/09/08 00:20:34;;;;;;;28.30;13.73;;;;;;;;;;5032203;28;20025;-73
2023/09/08 00:22:59;;;;;;;31.15;14.68;;;;;;;;;;5033162;28;20082;-72
2023/09/08 00:25:25;;;;;;;30.45;15.05;;;;;;;;;;5031514;28;20049;-72
2023/09/08 00:27:50;;;;;;;29.20;15.40;;;;;;;;;;5033051;28;20449;-72
2023/09/08 00:30:15;;;;;;;26.27;13.98;;;;;;;;;;5032227;28;20032;-73
2023/09/08 00:32:41;;;;;;;24.52;13.48;;;;;;;;;;5033042;28;20113;-72
2023/09/08 00:35:07;;;;;;;25.60;14.13;;;;;;;;;;5034681;28;20368;-73
2023/09/08 00:37:33;;;;;;;32.78;15.80;;;;;;;;;;5038275;28;20029;-72
2023/09/08 00:39:58;;;;;;;27.52;13.38;;;;;;;;;;5066808;23;20399;-71
2023/09/08 00:42:23;;;;;;;28.98;16.25;;;;;;;;;;5060150;28;20028;-72
2023/09/08 00:44:49;;;;;;;27.77;14.82;;;;;;;;;;5041673;28;20128;-71
2023/09/08 00:47:15;;;;;;;33.38;16.63;;;;;;;;;;5041965;28;20081;-72
2023/09/08 00:49:40;;;;;;;28.20;15.90;;;;;;;;;;5043019;28;20046;-71
2023/09/08 00:52:05;;;;;;;26.80;13.20;;;;;;;;;;5059621;28;20028;-72
2023/09/08 00:54:31;;;;;;;27.83;14.48;;;;;;;;;;5060129;28;20036;-71
2023/09/08 00:56:59;;;;;;;33.17;15.85;;;;;;;;;;5059357;28;20029;-72
2023/09/08 00:59:25;;;;;;;30.27;15.75;;;;;;;;;;5058792;28;20051;-72
2023/09/08 01:01:50;;;;;;;30.02;15.73;;;;;;;;;;5058602;28;20465;-72
2023/09/08 01:04:16;;;;;;;27.73;14.75;;;;;;;;;;5059788;28;20028;-72
2023/09/08 01:06:41;;;;;;;28.40;15.07;;;;;;;;;;5058882;28;20060;-72
2023/09/08 01:09:07;;;;;;;29.20;16.27;;;;;;;;;;5058093;28;20025;-71
2023/09/08 01:11:32;;;;;;;35.47;15.77;;;;;;;;;;5058694;28;20078;-72
2023/09/08 01:13:57;;;;;;;27.08;15.65;;;;;;;;;;5058965;28;20429;-72
2023/09/08 01:16:23;;;;;;;31.50;16.13;;;;;;;;;;5058715;28;20032;-72
2023/09/08 01:18:49;;;;;;;26.00;13.18;;;;;;;;;;5059844;28;20032;-72
2023/09/08 01:21:33;;;;;;;25.55;12.98;;;;;;;;;;5057978;28;20029;-72
2023/09/08 01:24:26;;;;;;;25.40;13.93;;;;;;;;;;5059880;28;20040;-72
2023/09/08 01:26:53;;;;;;;20.67;11.20;;;;;;;;;;5058645;28;20028;-72
2023/09/08 01:29:19;;;;;;;27.75;13.98;;;;;;;;;;5058430;28;20017;-72
2023/09/08 01:31:44;;;;;;;27.25;14.13;;;;;;;;;;5075308;28;20096;-72
2023/09/08 01:34:10;;;;;;;28.80;14.52;;;;;;;;;;5074523;28;20122;-72
2023/09/08 01:36:35;;;;;;;31.67;14.27;;;;;;;;;;5059639;28;20025;-72
2023/09/08 01:39:04;;;;;;;24.30;12.43;;;;;;;;;;5059549;28;20024;-72
2023/09/08 01:41:31;;;;;;;23.95;12.43;;;;;;;;;;5059528;28;20106;-72
2023/09/08 01:43:57;;;;;;;21.30;11.65;;;;;;;;;;5058959;28;20056;-71
2023/09/08 01:46:22;;;;;;;36.83;16.77;;;;;;;;;;5058293;28;20032;-72
2023/09/08 01:48:48;;;;;;;25.58;12.05;;;;;;;;;;5054834;28;20025;-72
2023/09/08 01:51:13;;;;;;;29.65;13.27;;;;;;;;;;5056305;28;20429;-72
2023/09/08 01:53:38;;;;;;;22.60;12.45;;;;;;;;;;5055753;28;20470;-72
2023/09/08 01:56:04;;;;;;;19.13;11.38;;;;;;;;;;5055379;28;20104;-72
2023/09/08 01:58:30;;;;;;;18.42;10.18;;;;;;;;;;5056259;28;20445;-72
2023/09/08 02:01:00;;;;;;;19.80;10.52;;;;;;;;;;5071315;28;20029;-72
2023/09/08 02:03:25;;;;;;;18.40;9.40;;;;;;;;;;5056354;28;20474;-72
2023/09/08 02:05:50;;;;;;;21.98;10.73;;;;;;;;;;5054265;28;20037;-72
2023/09/08 02:08:15;;;;;;;22.67;11.77;;;;;;;;;;5056248;28;20021;-72
2023/09/08 02:10:41;;;;;;;24.27;11.68;;;;;;;;;;5054892;28;20036;-72
2023/09/08 02:13:06;;;;;;;17.48;10.63;;;;;;;;;;5055972;28;20069;-72
2023/09/08 02:15:35;;;;;;;21.33;10.35;;;;;;;;;;5055713;28;20055;-72
2023/09/08 02:18:00;;;;;;;19.02;10.95;;;;;;;;;;5055666;28;20513;-72
2023/09/08 02:20:25;;;;;;;23.67;11.60;;;;;;;;;;5054852;28;20049;-72
2023/09/08 02:22:54;;;;;;;29.17;11.60;;;;;;;;;;5045850;28;20026;-72
2023/09/08 02:25:20;;;;;;;22.80;11.35;;;;;;;;;;5051174;28;20021;-72
2023/09/08 02:27:45;;;;;;;19.35;11.00;;;;;;;;;;5034191;28;20104;-72
2023/09/08 02:30:10;;;;;;;21.65;12.02;;;;;;;;;;5033529;28;20372;-72
2023/09/08 02:32:36;;;;;;;27.90;14.40;;;;;;;;;;5036193;28;20047;-72
2023/09/08 02:35:01;;;;;;;24.10;12.27;;;;;;;;;;5035599;28;20495;-72
2023/09/08 02:37:26;;;;;;;25.48;13.25;;;;;;;;;;5037131;28;20020;-73
2023/09/08 02:39:51;;;;;;;21.67;13.15;;;;;;;;;;5053918;28;20029;-72
2023/09/08 02:42:17;;;;;;;23.95;12.98;;;;;;;;;;5055579;28;20028;-72
2023/09/08 02:44:43;;;;;;;31.45;14.68;;;;;;;;;;5054550;28;20531;-72
2023/09/08 02:47:08;;;;;;;30.73;15.30;;;;;;;;;;5054904;28;20025;-71
2023/09/08 02:49:33;;;;;;;25.52;14.45;;;;;;;;;;5055069;28;20059;-72
2023/09/08 02:51:59;;;;;;;30.45;17.63;;;;;;;;;;5055114;28;20405;-72
2023/09/08 02:54:24;;;;;;;30.98;16.33;;;;;;;;;;5055233;28;20044;-72
2023/09/08 02:56:49;;;;;;;33.25;17.13;;;;;;;;;;5054488;28;20081;-71
2023/09/08 02:59:14;;;;;;;30.40;16.45;;;;;;;;;;5053233;28;20029;-72
2023/09/08 03:01:40;;;;;;;31.52;15.13;;;;;;;;;;5054950;28;20025;-72
2023/09/08 03:04:05;;;;;;;28.25;15.85;;;;;;;;;;5053926;28;20025;-72
2023/09/08 03:06:30;;;;;;;32.80;16.92;;;;;;;;;;5053622;28;20033;-72
2023/09/08 03:08:58;;;;;;;32.78;15.93;;;;;;;;;;5069460;28;20114;-72
2023/09/08 03:11:23;;;;;;;31.23;17.50;;;;;;;;;;5053620;28;20040;-72
2023/09/08 03:13:49;;;;;;;30.95;16.42;;;;;;;;;;5053435;28;20029;-72
2023/09/08 03:16:14;;;;;;;30.55;15.98;;;;;;;;;;5052660;28;20024;-71
2023/09/08 03:18:39;;;;;;;29.88;16.17;;;;;;;;;;5053400;28;20100;-72
2023/09/08 03:21:11;;;;;;;29.02;15.73;;;;;;;;;;5054479;28;20067;-72
2023/09/08 03:23:38;;;;;;;36.97;16.67;;;;;;;;;;5069411;28;20017;-72
2023/09/08 03:26:03;;;;;;;29.00;15.50;;;;;;;;;;5069555;28;20036;-72
2023/09/08 03:28:28;;;;;;;30.58;15.95;;;;;;;;;;5054396;28;20025;-72
2023/09/08 03:30:54;;;;;;;24.92;14.57;;;;;;;;;;5053230;28;20044;-72
2023/09/08 03:33:19;;;;;;;25.20;13.93;;;;;;;;;;5054473;28;20021;-72
2023/09/08 03:35:44;;;;;;;30.10;15.05;;;;;;;;;;5052847;28;20036;-72
2023/09/08 03:38:09;;;;;;;34.63;18.00;;;;;;;;;;5054531;28;20033;-72
2023/09/08 03:40:35;;;;;;;30.80;15.68;;;;;;;;;;5052357;28;20060;-72
2023/09/08 03:43:00;;;;;;;29.27;14.80;;;;;;;;;;5054814;28;20028;-72
2023/09/08 03:45:25;;;;;;;27.42;14.60;;;;;;;;;;5054999;28;20513;-72
2023/09/08 03:47:51;;;;;;;27.80;15.98;;;;;;;;;;5054694;28;20025;-72
2023/09/08 03:50:16;;;;;;;29.58;15.73;;;;;;;;;;5052782;28;20040;-72
2023/09/08 03:52:41;;;;;;;27.70;15.50;;;;;;;;;;5053984;28;20024;-72
2023/09/08 03:55:06;;;;;;;26.75;14.25;;;;;;;;;;5053192;28;20020;-72
2023/09/08 03:57:32;;;;;;;28.83;16.15;;;;;;;;;;5053576;28;20596;-72
2023/09/08 03:59:57;;;;;;;24.38;13.55;;;;;;;;;;5052439;28;20096;-72
2023/09/08 04:02:22;;;;;;;22.60;12.80;;;;;;;;;;5052879;28;20025;-72
2023/09/08 04:04:48;;;;;;;27.25;15.20;;;;;;;;;;5052444;28;20024;-72
2023/09/08 04:07:13;;;;;;;25.13;14.48;;;;;;;;;;5052152;28;20116;-72
2023/09/08 04:09:38;;;;;;;25.38;13.90;;;;;;;;;;5053032;28;20029;-72
2023/09/08 04:12:04;;;;;;;19.42;12.50;;;;;;;;;;5052696;28;20020;-72
2023/09/08 04:14:30;;;;;;;22.05;13.23;;;;;;;;;;5053585;28;20064;-71
2023/09/08 04:16:55;;;;;;;23.75;13.52;;;;;;;;;;5053456;28;20106;-72
2023/09/08 04:19:20;;;;;;;25.60;15.52;;;;;;;;;;5052135;28;20029;-72
2023/09/08 04:21:46;;;;;;;21.55;12.73;;;;;;;;;;5053864;28;20103;-72
2023/09/08 04:24:11;;;;;;;27.58;15.73;;;;;;;;;;5053436;28;20394;-72
2023/09/08 04:26:37;;;;;;;27.83;16.45;;;;;;;;;;5053657;28;20032;-72
2023/09/08 04:29:02;;;;;;;24.48;13.57;;;;;;;;;;5051534;28;20124;-72
2023/09/08 04:31:27;;;;;;;30.30;15.98;;;;;;;;;;5053272;28;20021;-72
2023/09/08 04:33:53;;;;;;;27.55;14.75;;;;;;;;;;5052378;28;20064;-74
2023/09/08 04:36:19;;;;;;;24.83;15.73;;;;;;;;;;5053036;28;20017;-72
2023/09/08 04:38:44;;;;;;;23.23;15.43;;;;;;;;;;5052091;28;20430;-72
2023/09/08 04:41:10;;;;;;;20.40;14.38;;;;;;;;;;5051879;28;20029;-72
2023/09/08 04:43:37;;;;;;;23.23;14.10;;;;;;;;;;5052194;28;20056;-72
2023/09/08 04:46:03;;;;;;;23.55;14.13;;;;;;;;;;5052104;28;20473;-72
2023/09/08 04:48:29;;;;;;;26.58;14.85;;;;;;;;;;5053493;28;20020;-73
2023/09/08 04:50:54;;;;;;;23.55;12.45;;;;;;;;;;5052518;28;20025;-72
2023/09/08 04:53:19;;;;;;;20.80;12.90;;;;;;;;;;5053065;28;20020;-74
2023/09/08 04:55:45;;;;;;;21.27;11.27;;;;;;;;;;5053703;28;20538;-73
2023/09/08 04:58:10;;;;;;;21.60;13.75;;;;;;;;;;5052007;28;20024;-73
2023/09/08 05:00:38;;;;;;;26.55;13.73;;;;;;;;;;5051741;28;20021;-73
2023/09/08 05:03:04;;;;;;;26.15;13.32;;;;;;;;;;5051671;28;20056;-73
2023/09/08 05:05:29;;;;;;;23.77;13.30;;;;;;;;;;5052698;28;20020;-73
2023/09/08 05:07:56;;;;;;;22.15;14.25;;;;;;;;;;5053436;28;20021;-73
2023/09/08 05:10:22;;;;;;;23.88;14.00;;;;;;;;;;5052866;28;20021;-73
2023/09/08 05:12:47;;;;;;;24.65;12.88;;;;;;;;;;5053156;28;20052;-73
2023/09/08 05:15:15;;;;;;;25.58;15.48;;;;;;;;;;5052114;28;20446;-73
2023/09/08 05:17:40;;;;;;;22.52;14.50;;;;;;;;;;5052351;28;20032;-73
2023/09/08 05:20:06;;;;;;;22.85;13.23;;;;;;;;;;5051316;28;20025;-73
2023/09/08 05:22:32;;;;;;;21.15;12.82;;;;;;;;;;5054709;28;20032;-73
2023/09/08 05:24:57;;;;;;;24.05;12.75;;;;;;;;;;5055903;28;20056;-73
2023/09/08 05:27:22;;;;;;;20.63;12.35;;;;;;;;;;5055547;28;20036;-73
2023/09/08 05:29:47;;;;;;;18.13;11.10;;;;;;;;;;5056474;28;20102;-73
2023/09/08 05:32:13;;;;;;;20.17;11.65;;;;;;;;;;5056791;28;20028;-73
2023/09/08 05:34:39;;;;;;;21.35;12.00;;;;;;;;;;5054729;28;20028;-73
2023/09/08 05:37:04;;;;;;;22.70;13.30;;;;;;;;;;5056554;28;20102;-73
2023/09/08 05:39:29;;;;;;;26.08;13.45;;;;;;;;;;5056202;28;20479;-73
2023/09/08 05:41:54;;;;;;;28.45;14.35;;;;;;;;;;5056592;28;20021;-73
2023/09/08 05:44:20;;;;;;;25.08;15.13;;;;;;;;;;5055800;28;20029;-73
2023/09/08 05:46:45;;;;;;;33.03;19.23;;;;;;;;;;5054827;28;20492;-73
2023/09/08 05:49:10;;;;;;;30.92;16.23;;;;;;;;;;5055854;28;20036;-73
2023/09/08 05:51:36;;;;;;;30.05;17.05;;;;;;;;;;5055639;28;20024;-73
2023/09/08 05:54:01;;;;;;;27.65;16.77;;;;;;;;;;5055281;28;20435;-73
2023/09/08 05:56:31;;;;;;;28.83;16.23;;;;;;;;;;5054991;28;20028;-72
2023/09/08 05:58:56;;;;;;;29.38;16.60;;;;;;;;;;5054698;28;20564;-73
2023/09/08 06:01:21;;;;;;;27.50;15.55;;;;;;;;;;5056479;28;20067;-72
2023/09/08 06:03:47;;;;;;;25.50;14.65;;;;;;;;;;5054957;28;20025;-71
2023/09/08 06:06:13;;;;;;;27.50;16.55;;;;;;;;;;5054736;28;20106;-71
2023/09/08 06:08:38;;;;;;;28.88;16.38;;;;;;;;;;5055425;28;20028;-71
2023/09/08 06:11:03;;;;;;;28.98;16.02;;;;;;;;;;5055700;28;20017;-71
2023/09/08 06:13:28;;;;;;;29.35;17.15;;;;;;;;;;5053471;28;20025;-72
2023/09/08 06:15:54;;;;;;;27.38;15.95;;;;;;;;;;5055369;28;20017;-71
2023/09/08 06:18:19;;;;;;;27.25;15.15;;;;;;;;;;5056277;28;20417;-71
2023/09/08 06:20:45;;;;;;;32.20;16.27;;;;;;;;;;5055189;28;20048;-71
2023/09/08 06:23:11;;;;;;;29.38;16.15;;;;;;;;;;5054455;28;20029;-71
2023/09/08 06:25:36;;;;;;;32.63;19.27;;;;;;;;;;5036006;28;20025;-71
2023/09/08 06:28:01;;;;;;;30.95;16.70;;;;;;;;;;5054646;28;20079;-70
2023/09/08 06:30:27;;;;;;;30.95;16.75;;;;;;;;;;5054850;28;20042;-71
2023/09/08 06:32:52;;;;;;;34.80;20.35;;;;;;;;;;5069497;28;20027;-72
2023/09/08 06:35:17;;;;;;;32.05;20.77;;;;;;;;;;5053781;28;20367;-71
2023/09/08 06:37:42;;;;;;;29.75;16.83;;;;;;;;;;5054690;28;20498;-72
2023/09/08 06:40:08;;;;;;;32.97;19.60;;;;;;;;;;5055023;28;20068;-73
2023/09/08 06:42:33;;;;;;;32.40;19.35;;;;;;;;;;5058998;23;20123;-70
2023/09/08 06:44:59;;;;;;;25.23;15.38;;;;;;;;;;5032645;28;20030;-70
2023/09/08 06:47:24;;;;;;;30.65;18.60;;;;;;;;;;5017070;28;20167;-71
2023/09/08 06:49:49;;;;;;;31.10;17.42;;;;;;;;;;5033411;28;20163;-70
2023/09/08 06:52:15;;;;;;;25.85;17.55;;;;;;;;;;5034887;28;20095;-70
2023/09/08 06:54:40;;;;;;;30.25;16.98;;;;;;;;;;5035114;28;20037;-71
2023/09/08 06:59:40;;;;;;;28.27;17.17;;;;;;;;;;5050245;23;20041;-72
2023/09/08 07:02:07;;;;;;;25.85;15.90;;;;;;;;;;5034829;28;20494;-72
2023/09/08 07:04:33;;;;;;;26.40;16.95;;;;;;;;;;5001384;28;20028;-72
2023/09/08 07:07:06;;;;;;;25.45;16.50;;;;;;;;;;5035526;28;20025;-73
2023/09/08 07:09:32;;;;;;;24.05;13.48;;;;;;;;;;5033591;28;20028;-72
2023/09/08 07:11:57;;;;;;;25.15;15.05;;;;;;;;;;5035201;28;20104;-72
2023/09/08 07:14:23;;;;;;;25.40;15.30;;;;;;;;;;5035275;28;20021;-72
2023/09/08 07:16:49;;;;;;;27.27;13.77;;;;;;;;;;5034647;28;20083;-73
2023/09/08 07:19:14;;;;;;;19.92;12.43;;;;;;;;;;5035005;28;20030;-72
2023/09/08 07:21:39;;;;;;;22.77;13.43;;;;;;;;;;5033900;28;20030;-72
2023/09/08 07:24:05;;;;;;;25.45;13.20;;;;;;;;;;5050443;28;20034;-73
2023/09/08 07:26:30;;;;;;;21.83;12.43;;;;;;;;;;5034946;28;20089;-72
2023/09/08 07:28:55;;;;;;;22.83;12.90;;;;;;;;;;5034468;28;20034;-73
2023/09/08 07:31:21;;;;;;;18.48;11.68;;;;;;;;;;5033569;28;20022;-72
2023/09/08 07:33:46;;;;;;;19.40;11.82;;;;;;;;;;5034961;28;20109;-72
2023/09/08 07:36:13;;;;;;;19.92;13.48;;;;;;;;;;5034998;28;20386;-72
2023/09/08 07:38:38;;;;;;;15.32;10.63;;;;;;;;;;5034727;28;20509;-72
2023/09/08 07:41:04;;;;;;;18.92;12.68;;;;;;;;;;5050052;28;20025;-72
2023/09/08 07:43:29;;;;;;;16.77;10.90;;;;;;;;;;5050230;28;20029;-72
2023/09/08 07:45:55;;;;;;;17.08;10.90;;;;;;;;;;5032619;28;20030;-72
2023/09/08 07:48:20;;;;;;;15.85;10.15;;;;;;;;;;5050026;28;20025;-72
2023/09/08 07:50:45;;;;;;;13.45;8.95;;;;;;;;;;5049541;28;20044;-73
2023/09/08 07:53:11;;;;;;;16.55;9.85;;;;;;;;;;5049958;28;20474;-72
2023/09/08 07:55:36;;;;;;;16.23;9.55;;;;;;;;;;5033532;28;20025;-72
2023/09/08 07:58:03;;;;;;;13.80;9.57;;;;;;;;;;5033293;28;20033;-73
2023/09/08 08:00:28;;;;;;;15.95;9.68;;;;;;;;;;5033442;28;20398;-73
2023/09/08 08:02:55;;;;;;;17.00;9.93;;;;;;;;;;5033744;28;20034;-72
2023/09/08 08:05:20;;;;;;;15.88;9.82;;;;;;;;;;5034408;28;20028;-73
2023/09/08 08:07:46;;;;;;;14.30;9.20;;;;;;;;;;5033066;28;20021;-72
2023/09/08 08:10:12;;;;;;;12.73;9.00;;;;;;;;;;5033191;28;20059;-71
2023/09/08 08:12:38;;;;;;;14.85;9.50;;;;;;;;;;5016234;28;20019;-72
2023/09/08 08:15:04;;;;;;;16.33;9.07;;;;;;;;;;5032998;28;20558;-73
2023/09/08 08:17:30;;;;;;;12.95;9.07;;;;;;;;;;5034084;28;20109;-73
2023/09/08 08:19:58;;;;;;;16.00;9.05;;;;;;;;;;5032941;28;20025;-73
2023/09/08 08:22:23;;;;;;;14.50;10.32;;;;;;;;;;5033061;28;20505;-73
2023/09/08 08:24:48;;;;;;;14.88;8.60;;;;;;;;;;5016005;28;20021;-73
2023/09/08 08:27:14;;;;;;;13.60;8.45;;;;;;;;;;5034289;28;20022;-74
2023/09/08 08:29:39;;;;;;;12.07;8.15;;;;;;;;;;5033030;28;20040;-73
2023/09/08 08:32:05;;;;;;;13.95;8.73;;;;;;;;;;5049515;28;20064;-73
2023/09/08 08:34:30;;;;;;;13.93;7.95;;;;;;;;;;5032862;28;20395;-72
2023/09/08 08:36:56;;;;;;;12.90;8.93;;;;;;;;;;5032242;28;20402;-72
2023/09/08 08:39:21;;;;;;;12.52;8.35;;;;;;;;;;5034159;28;20470;-73
2023/09/08 08:41:46;;;;;;;11.38;7.68;;;;;;;;;;5033811;28;20037;-70
2023/09/08 08:44:11;;;;;;;10.48;7.45;;;;;;;;;;5032826;28;20044;-71
2023/09/08 08:46:38;;;;;;;10.45;7.47;;;;;;;;;;5032668;28;20036;-71
2023/09/08 08:49:04;;;;;;;10.45;7.82;;;;;;;;;;5033359;28;20017;-71
2023/09/08 08:51:32;;;;;;;11.98;8.50;;;;;;;;;;5033811;28;20024;-71
2023/09/08 08:53:58;;;;;;;10.18;7.28;;;;;;;;;;5032706;28;20479;-71
2023/09/08 08:56:23;;;;;;;14.43;8.90;;;;;;;;;;5035108;28;20079;-71
2023/09/08 08:58:49;;;;;;;12.95;7.25;;;;;;;;;;5036723;28;20030;-71
2023/09/08 09:01:19;;;;;;;14.70;7.97;;;;;;;;;;5036077;28;20035;-71
2023/09/08 09:03:48;;;;;;;11.50;7.07;;;;;;;;;;5053354;28;20056;-71
2023/09/08 09:06:13;;;;;;;11.60;7.43;;;;;;;;;;5037698;28;20096;-71
2023/09/08 09:08:39;;;;;;;10.77;7.60;;;;;;;;;;5019838;28;20120;-71
2023/09/08 09:11:04;;;;;;;11.55;7.82;;;;;;;;;;5037229;28;20040;-72
2023/09/08 09:13:30;;;;;;;12.75;7.63;;;;;;;;;;5036355;28;20021;-71
2023/09/08 09:15:59;;;;;;;11.65;8.27;;;;;;;;;;5037395;28;20025;-71
2023/09/08 09:18:26;;;;;;;10.65;7.13;;;;;;;;;;5035871;28;20517;-70
2023/09/08 09:20:55;;;;;;;14.13;7.80;;;;;;;;;;5035557;28;20025;-68
2023/09/08 09:23:31;;;;;;;17.10;7.97;;;;;;;;;;5036309;28;20052;-68
2023/09/08 09:25:57;;;;;;;15.75;8.48;;;;;;;;;;5035680;28;20021;-68
2023/09/08 09:28:22;;;;;;;10.77;7.40;;;;;;;;;;5035512;28;20052;-69
2023/09/08 09:30:50;;;;;;;11.38;7.18;;;;;;;;;;5035861;28;20029;-70
2023/09/08 09:33:16;;;;;;;13.85;7.25;;;;;;;;;;5036910;28;20025;-71
2023/09/08 09:35:49;;;;;;;11.13;6.97;;;;;;;;;;5037150;28;20100;-71
2023/09/08 09:38:15;;;;;;;10.73;6.78;;;;;;;;;;5035757;28;20056;-71
2023/09/08 09:40:40;;;;;;;10.73;7.00;;;;;;;;;;5035647;28;20445;-70
2023/09/08 09:43:07;;;;;;;13.80;7.18;;;;;;;;;;5035606;28;20037;-70
2023/09/08 09:45:33;;;;;;;13.00;7.88;;;;;;;;;;5035125;28;20119;-71
2023/09/08 09:47:59;;;;;;;12.30;7.88;;;;;;;;;;5035799;28;20064;-71
2023/09/08 09:50:33;;;;;;;11.00;7.75;;;;;;;;;;5036895;28;20053;-70
2023/09/08 09:53:01;;;;;;;10.88;6.95;;;;;;;;;;5035914;28;20109;-71
2023/09/08 09:55:27;;;;;;;14.68;7.40;;;;;;;;;;5031120;28;20025;-72
2023/09/08 09:57:58;;;;;;;13.23;7.70;;;;;;;;;;5026450;28;20048;-72
2023/09/08 10:00:27;;;;;;;11.68;6.53;;;;;;;;;;5034904;28;20037;-72
2023/09/08 10:02:54;;;;;;;11.95;7.85;;;;;;;;;;5034482;28;20240;-72
2023/09/08 10:05:19;;;;;;;13.43;7.03;;;;;;;;;;5034271;28;20048;-72
2023/09/08 10:07:48;;;;;;;11.00;7.43;;;;;;;;;;5035441;28;20483;-70
2023/09/08 10:10:13;;;;;;;9.38;6.93;;;;;;;;;;5034709;28;20471;-70
2023/09/08 10:12:38;;;;;;;11.80;7.40;;;;;;;;;;5035374;28;20021;-70
2023/09/08 10:15:05;;;;;;;10.07;7.00;;;;;;;;;;5034534;28;20040;-71
2023/09/08 10:17:31;;;;;;;13.70;8.38;;;;;;;;;;5034749;28;20032;-72
2023/09/08 10:20:00;;;;;;;13.48;7.68;;;;;;;;;;5033534;28;20026;-72
2023/09/08 10:22:29;;;;;;;11.48;8.23;;;;;;;;;;5018149;28;20026;-75
2023/09/08 10:24:56;;;;;;;13.30;6.90;;;;;;;;;;5027478;28;20108;-76
2023/09/08 10:27:23;;;;;;;13.38;7.80;;;;;;;;;;5028080;28;20479;-76
2023/09/08 10:29:49;;;;;;;14.90;7.55;;;;;;;;;;5032953;28;20025;-76
2023/09/08 10:32:15;;;;;;;10.48;7.68;;;;;;;;;;5033487;28;20049;-76
2023/09/08 10:34:41;;;;;;;9.18;6.78;;;;;;;;;;5014189;28;20029;-76
2023/09/08 10:37:33;;;;;;;11.48;8.55;;;;;;;;;;5014741;28;20411;-75
2023/09/08 10:40:17;;;;;;;10.57;8.70;;;;;;;;;;5030800;28;20391;-74
2023/09/08 10:42:43;;;;;;;13.63;7.68;;;;;;;;;;5042951;28;20022;-74
2023/09/08 10:45:17;;;;;;;11.70;8.13;;;;;;;;;;5033466;28;20037;-74
2023/09/08 10:47:45;;;;;;;9.93;7.03;;;;;;;;;;5031548;28;20035;-74
2023/09/08 10:50:17;;;;;;;14.27;8.25;;;;;;;;;;5034828;28;20025;-73
2023/09/08 10:52:42;;;;;;;12.07;6.93;;;;;;;;;;5047656;28;20287;-74
2023/09/08 10:55:08;;;;;;;11.00;7.85;;;;;;;;;;5034024;28;20461;-73
2023/09/08 10:57:33;;;;;;;10.32;7.82;;;;;;;;;;5026130;28;20025;-74
2023/09/08 11:00:05;;;;;;;12.05;7.53;;;;;;;;;;5033541;28;20108;-75
2023/09/08 11:02:44;;;;;;;12.05;8.10;;;;;;;;;;5033649;28;20032;-75
2023/09/08 11:05:13;;;;;;;9.93;6.75;;;;;;;;;;5034632;28;20562;-73
2023/09/08 11:07:40;;;;;;;8.77;7.38;;;;;;;;;;5033786;28;20026;-72
2023/09/08 11:10:06;;;;;;;11.73;6.72;;;;;;;;;;5034049;28;20066;-72
2023/09/08 11:12:32;;;;;;;8.85;6.65;;;;;;;;;;5033652;28;20026;-72
2023/09/08 11:15:00;;;;;;;10.48;7.22;;;;;;;;;;5035031;28;20083;-73
2023/09/08 11:17:27;;;;;;;10.23;6.85;;;;;;;;;;5033299;28;20057;-73
2023/09/08 11:19:53;;;;;;;10.32;7.30;;;;;;;;;;5034490;28;20052;-72
2023/09/08 11:22:23;;;;;;;11.65;6.85;;;;;;;;;;5050218;28;20033;-73
2023/09/08 11:24:49;;;;;;;11.90;7.60;;;;;;;;;;5033343;28;20076;-72
2023/09/08 11:27:14;;;;;;;11.20;6.75;;;;;;;;;;5033348;28;20434;-72
2023/09/08 11:29:42;;;;;;;11.05;7.63;;;;;;;;;;5034282;28;20479;-73
2023/09/08 11:32:08;;;;;;;12.10;7.22;;;;;;;;;;5009121;28;20032;-72
2023/09/08 11:34:34;;;;;;;11.70;6.15;;;;;;;;;;5030302;28;20033;-72
2023/09/08 11:37:00;;;;;;;10.20;6.43;;;;;;;;;;5022337;28;20025;-72
2023/09/08 11:39:28;;;;;;;8.75;6.82;;;;;;;;;;5033396;28;20021;-72
2023/09/08 11:41:53;;;;;;;8.20;6.70;;;;;;;;;;5034194;28;20028;-72
2023/09/08 11:44:19;;;;;;;11.63;7.85;;;;;;;;;;5034120;28;20026;-71
2023/09/08 11:46:46;;;;;;;8.57;6.22;;;;;;;;;;5033784;28;20079;-72
2023/09/08 11:49:12;;;;;;;9.02;6.50;;;;;;;;;;5033140;28;20021;-72
2023/09/08 11:51:37;;;;;;;10.02;7.00;;;;;;;;;;5034436;28;20028;-72
2023/09/08 11:54:03;;;;;;;9.88;5.90;;;;;;;;;;5032934;28;20479;-72
2023/09/08 11:56:28;;;;;;;9.48;6.25;;;;;;;;;;5049848;28;20033;-72
2023/09/08 11:58:54;;;;;;;10.00;6.65;;;;;;;;;;5033345;28;20029;-72
2023/09/08 12:01:19;;;;;;;11.25;6.70;;;;;;;;;;5034047;28;20025;-72
2023/09/08 12:03:55;;;;;;;12.43;7.03;;;;;;;;;;5034225;28;20076;-72
2023/09/08 12:06:27;;;;;;;10.55;7.20;;;;;;;;;;5049319;28;20383;-73
2023/09/08 12:08:53;;;;;;;8.40;6.50;;;;;;;;;;5032555;28;20040;-73
2023/09/08 12:11:18;;;;;;;8.73;5.60;;;;;;;;;;5032793;28;20029;-72
2023/09/08 12:13:43;;;;;;;13.55;7.05;;;;;;;;;;5034412;28;20036;-72
2023/09/08 12:16:24;;;;;;;10.15;5.57;;;;;;;;;;5032720;28;20118;-72
2023/09/08 12:18:50;;;;;;;12.00;6.53;;;;;;;;;;5033844;28;20029;-72
2023/09/08 12:21:16;;;;;;;9.52;6.25;;;;;;;;;;5032416;28;20036;-72
2023/09/08 12:23:51;;;;;;;8.25;5.70;;;;;;;;;;5032237;28;20029;-73
2023/09/08 12:26:17;;;;;;;6.90;5.57;;;;;;;;;;5032775;28;20030;-72
2023/09/08 12:28:43;;;;;;;8.88;6.15;;;;;;;;;;5032222;28;20032;-73
2023/09/08 12:31:09;;;;;;;8.77;6.30;;;;;;;;;;5032208;28;20037;-73
2023/09/08 12:33:35;;;;;;;11.10;6.50;;;;;;;;;;5031765;28;20025;-73
2023/09/08 12:36:18;;;;;;;10.52;6.82;;;;;;;;;;5032825;28;20035;-73
2023/09/08 12:38:48;;;;;;;8.45;5.22;;;;;;;;;;5032162;28;20033;-73
2023/09/08 12:41:13;;;;;;;9.32;6.40;;;;;;;;;;5032385;28;20057;-72
2023/09/08 12:43:38;;;;;;;12.48;7.28;;;;;;;;;;5049136;28;20520;-73
2023/09/08 12:46:04;;;;;;;7.00;5.75;;;;;;;;;;5033028;28;20534;-73
2023/09/08 12:48:29;;;;;;;10.05;5.90;;;;;;;;;;5033296;28;20037;-73
2023/09/08 12:50:54;;;;;;;13.32;7.38;;;;;;;;;;5033638;28;20433;-73
2023/09/08 12:53:20;;;;;;;7.70;5.72;;;;;;;;;;5033364;28;20017;-73
2023/09/08 12:55:46;;;;;;;12.48;6.93;;;;;;;;;;5032741;28;20024;-73
2023/09/08 12:58:11;;;;;;;10.40;5.85;;;;;;;;;;5031965;28;20033;-73
2023/09/08 13:00:36;;;;;;;10.32;6.15;;;;;;;;;;5031959;28;20033;-73
2023/09/08 13:03:02;;;;;;;9.15;6.00;;;;;;;;;;5033335;28;20026;-73
2023/09/08 13:05:27;;;;;;;9.80;6.15;;;;;;;;;;5031775;28;20483;-74
2023/09/08 13:07:53;;;;;;;10.27;7.03;;;;;;;;;;5033297;28;20025;-73
2023/09/08 13:10:19;;;;;;;9.48;6.63;;;;;;;;;;5031985;28;20034;-74
2023/09/08 13:12:45;;;;;;;10.55;7.10;;;;;;;;;;5032203;28;20087;-73
2023/09/08 13:15:10;;;;;;;8.30;7.05;;;;;;;;;;5032103;28;20433;-75
2023/09/08 13:17:35;;;;;;;8.65;6.43;;;;;;;;;;5032905;28;20483;-74
2023/09/08 13:20:01;;;;;;;11.80;6.47;;;;;;;;;;5033610;28;20482;-74
2023/09/08 13:22:27;;;;;;;10.50;6.70;;;;;;;;;;5033032;28;20057;-74
2023/09/08 13:24:52;;;;;;;8.85;6.53;;;;;;;;;;5032157;28;20025;-74
2023/09/08 13:27:18;;;;;;;10.80;7.80;;;;;;;;;;5031438;28;20033;-74
2023/09/08 13:29:43;;;;;;;14.63;7.13;;;;;;;;;;5033576;28;20029;-74
2023/09/08 13:32:09;;;;;;;11.85;6.80;;;;;;;;;;5032106;28;20021;-74
2023/09/08 13:34:35;;;;;;;13.32;7.30;;;;;;;;;;5034100;28;20017;-74
2023/09/08 13:37:02;;;;;;;9.35;7.47;;;;;;;;;;5032170;28;20026;-74
2023/09/08 13:39:27;;;;;;;11.57;6.65;;;;;;;;;;5031794;28;20076;-74
2023/09/08 13:41:54;;;;;;;10.82;6.93;;;;;;;;;;5032055;28;20026;-74
2023/09/08 13:44:20;;;;;;;7.95;6.03;;;;;;;;;;5034930;28;20034;-74
2023/09/08 13:46:47;;;;;;;9.90;6.63;;;;;;;;;;5036818;28;20032;-74
2023/09/08 13:49:12;;;;;;;10.73;6.75;;;;;;;;;;5036791;28;20017;-74
2023/09/08 13:51:37;;;;;;;12.43;8.00;;;;;;;;;;5036491;28;20471;-74
2023/09/08 13:54:03;;;;;;;9.73;7.65;;;;;;;;;;5036771;28;20490;-73
2023/09/08 13:56:28;;;;;;;9.15;6.88;;;;;;;;;;5036580;28;20030;-74
2023/09/08 13:58:53;;;;;;;13.18;7.35;;;;;;;;;;5035841;28;20030;-74
2023/09/08 14:01:19;;;;;;;8.80;6.53;;;;;;;;;;5035173;28;20033;-74
2023/09/08 14:03:44;;;;;;;9.95;6.78;;;;;;;;;;5036534;28;20025;-74
2023/09/08 14:06:09;;;;;;;10.90;7.07;;;;;;;;;;5034973;28;20068;-74
2023/09/08 14:08:34;;;;;;;11.70;7.75;;;;;;;;;;5036841;28;20029;-74
2023/09/08 14:11:00;;;;;;;11.93;7.88;;;;;;;;;;5019197;28;20021;-74
2023/09/08 14:13:25;;;;;;;11.00;8.10;;;;;;;;;;5018861;28;20061;-75
2023/09/08 14:15:51;;;;;;;9.27;7.72;;;;;;;;;;5035675;28;20083;-73
2023/09/08 14:18:16;;;;;;;9.38;6.78;;;;;;;;;;5036373;28;20022;-74
2023/09/08 14:20:42;;;;;;;13.10;8.05;;;;;;;;;;5036285;28;20025;-74